Time;durP1;ratioP1;P1;durP2;ratioP2;P2;SDS_P1;SDS_P2;PMS_P1;PMS_P2;Temp;Humidity;BMP_temperature;BMP_pressure;BME280_temperature;BME280_humidity;BME280_pressure;Samples;Min_cycle;Max_cycle;Signal;HPM_P1;HPM_P2
2023/01/01 00:01:06;;;;;;;33.50;22.58;;;13.70;99.90;;;;;;5079573;28;20131;-63
2023/01/01 00:03:32;;;;;;;35.28;25.88;;;13.70;99.90;;;;;;5071726;28;20063;-62
2023/01/01 00:05:58;;;;;;;47.95;37.75;;;13.70;99.90;;;;;;5087102;28;20041;-64
2023/01/01 00:08:23;;;;;;;44.97;34.40;;;13.80;99.90;;;;;;5090417;28;20040;-63
2023/01/01 00:10:49;;;;;;;41.83;34.38;;;13.70;99.90;;;;;;5098991;28;20427;-62
2023/01/01 00:13:14;;;;;;;36.92;28.60;;;13.70;99.90;;;;;;5066962;28;20490;-63
2023/01/01 00:15:40;;;;;;;35.60;26.70;;;13.70;99.90;;;;;;5083449;28;20134;-62
2023/01/01 00:18:06;;;;;;;34.97;26.52;;;13.70;99.90;;;;;;5088667;28;20036;-62
2023/01/01 00:20:31;;;;;;;35.17;23.42;;;13.80;99.90;;;;;;5098761;28;20356;-62
2023/01/01 00:22:57;;;;;;;35.17;25.20;;;13.70;99.90;;;;;;5072567;28;20128;-64
2023/01/01 00:25:23;;;;;;;30.13;24.10;;;13.70;99.90;;;;;;5075690;28;20055;-63
2023/01/01 00:27:49;;;;;;;37.08;28.23;;;13.60;99.90;;;;;;5056792;28;20048;-63
2023/01/01 00:30:15;;;;;;;45.03;37.20;;;13.60;99.90;;;;;;5098428;28;20107;-63
2023/01/01 00:32:41;;;;;;;35.38;25.33;;;13.60;99.90;;;;;;5077567;28;20380;-61
2023/01/01 00:35:07;;;;;;;33.60;25.95;;;13.70;99.90;;;;;;5081506;28;20066;-61
2023/01/01 00:37:32;;;;;;;37.35;27.00;;;13.70;99.90;;;;;;5094518;28;20040;-61
2023/01/01 00:39:58;;;;;;;31.17;25.15;;;13.70;99.90;;;;;;5091642;28;20039;-61
2023/01/01 00:42:24;;;;;;;38.22;29.90;;;13.70;99.90;;;;;;5073717;28;20055;-61
2023/01/01 00:44:49;;;;;;;34.45;23.95;;;13.70;99.90;;;;;;5075288;28;20036;-61
2023/01/01 00:47:15;;;;;;;35.25;25.15;;;13.70;99.90;;;;;;5091108;28;20043;-61
2023/01/01 00:49:40;;;;;;;30.08;24.30;;;13.80;99.90;;;;;;5070101;28;20360;-61
2023/01/01 00:52:06;;;;;;;32.42;23.60;;;13.80;99.90;;;;;;5093940;28;20419;-61
2023/01/01 00:54:34;;;;;;;33.70;24.85;;;13.80;99.90;;;;;;5089818;28;20344;-64
2023/01/01 00:57:00;;;;;;;31.58;24.10;;;13.80;99.90;;;;;;5073420;28;20389;-63
2023/01/01 00:59:27;;;;;;;32.17;23.67;;;13.80;99.90;;;;;;5088987;28;20114;-62
2023/01/01 01:01:52;;;;;;;31.65;25.35;;;13.80;99.90;;;;;;5096768;28;20035;-62
2023/01/01 01:04:18;;;;;;;37.20;24.67;;;13.80;99.90;;;;;;5092040;28;20041;-62
2023/01/01 01:06:43;;;;;;;34.30;24.17;;;13.80;99.90;;;;;;5095633;28;20455;-62
2023/01/01 01:09:09;;;;;;;36.95;27.20;;;13.90;99.90;;;;;;5093295;28;20112;-67
2023/01/01 01:11:34;;;;;;;33.88;25.30;;;13.80;99.90;;;;;;5091893;28;20047;-64
2023/01/01 01:14:00;;;;;;;33.08;22.85;;;13.80;99.90;;;;;;5088230;28;20090;-63
2023/01/01 01:16:31;;;;;;;31.48;22.13;;;13.80;99.90;;;;;;5089987;28;20036;-65
2023/01/01 01:18:59;;;;;;;31.58;21.35;;;13.80;99.90;;;;;;5070933;28;20367;-64
2023/01/01 01:21:27;;;;;;;29.55;21.50;;;13.90;99.90;;;;;;5096908;28;20036;-62
2023/01/01 01:23:53;;;;;;;33.08;23.48;;;13.80;99.90;;;;;;5083037;28;20060;-62
2023/01/01 01:26:31;;;;;;;33.80;21.83;;;13.90;99.90;;;;;;5077174;28;20037;-63
2023/01/01 01:28:56;;;;;;;27.95;20.17;;;13.90;99.90;;;;;;5076539;28;20222;-62
2023/01/01 01:31:24;;;;;;;27.45;21.23;;;13.80;99.90;;;;;;5080968;28;20128;-62
2023/01/01 01:33:50;;;;;;;29.88;20.65;;;13.80;99.90;;;;;;5061810;28;20482;-60
2023/01/01 01:36:17;;;;;;;27.48;20.48;;;13.70;99.90;;;;;;5078579;28;20086;-63
2023/01/01 01:38:43;;;;;;;27.52;19.05;;;13.80;99.90;;;;;;5079260;28;20040;-64
2023/01/01 01:41:12;;;;;;;31.50;19.80;;;13.70;99.90;;;;;;5074965;28;20039;-63
2023/01/01 01:43:38;;;;;;;27.25;17.67;;;13.70;99.90;;;;;;5080951;28;20040;-63
2023/01/01 01:46:07;;;;;;;23.13;16.38;;;13.70;99.90;;;;;;5062077;28;20043;-62
2023/01/01 01:48:39;;;;;;;22.77;16.02;;;13.70;99.90;;;;;;5056601;28;20055;-61
2023/01/01 01:51:06;;;;;;;24.85;16.58;;;13.70;99.90;;;;;;5060899;28;20047;-63
2023/01/01 01:53:35;;;;;;;23.50;14.90;;;13.70;99.90;;;;;;5058871;28;20032;-62
2023/01/01 01:56:05;;;;;;;23.00;14.00;;;13.70;99.90;;;;;;5045174;28;20443;-64
2023/01/01 01:58:32;;;;;;;23.85;13.18;;;13.70;99.90;;;;;;5076134;28;20036;-63
2023/01/01 02:00:58;;;;;;;24.98;14.23;;;13.70;99.90;;;;;;5059728;28;20074;-62
2023/01/01 02:03:30;;;;;;;22.27;14.07;;;13.70;99.90;;;;;;5042824;28;20080;-61
2023/01/01 02:05:57;;;;;;;21.75;13.55;;;13.70;99.90;;;;;;5076341;28;20364;-62
2023/01/01 02:08:24;;;;;;;22.05;12.45;;;13.60;99.90;;;;;;5059192;28;20036;-63
2023/01/01 02:10:50;;;;;;;21.02;12.75;;;13.60;99.90;;;;;;5044942;28;20040;-61
2023/01/01 02:13:15;;;;;;;18.38;11.55;;;13.60;99.90;;;;;;5076691;28;20127;-63
2023/01/01 02:15:51;;;;;;;23.30;11.20;;;13.70;99.90;;;;;;5056752;28;20364;-61
2023/01/01 02:18:24;;;;;;;18.85;10.27;;;13.60;99.90;;;;;;5075367;28;20068;-61
2023/01/01 02:20:56;;;;;;;18.60;10.40;;;13.60;99.90;;;;;;5079811;28;20035;-61
2023/01/01 02:23:46;;;;;;;20.10;9.95;;;13.60;99.90;;;;;;5060641;28;20486;-60
2023/01/01 02:26:53;;;;;;;17.75;8.98;;;13.60;99.90;;;;;;5076213;28;20380;-63
2023/01/01 02:29:29;;;;;;;16.60;8.48;;;13.60;99.90;;;;;;5075611;28;20040;-61
2023/01/01 02:32:03;;;;;;;15.13;8.43;;;13.60;99.90;;;;;;5037312;28;20044;-62
2023/01/01 02:34:34;;;;;;;17.70;9.13;;;13.60;99.90;;;;;;5055408;28;20063;-62
2023/01/01 02:37:04;;;;;;;12.13;7.28;;;13.60;99.90;;;;;;5080556;28;20464;-60
2023/01/01 02:39:34;;;;;;;16.38;8.55;;;13.60;99.90;;;;;;5050439;28;20353;-63
2023/01/01 02:42:01;;;;;;;17.63;9.00;;;13.60;99.90;;;;;;5080472;28;20037;-63
2023/01/01 02:44:31;;;;;;;16.33;8.40;;;13.60;99.90;;;;;;5077408;28;20036;-65
2023/01/01 02:47:04;;;;;;;14.38;7.50;;;13.60;99.90;;;;;;5073034;28;20373;-63
2023/01/01 02:49:30;;;;;;;15.35;7.18;;;13.70;99.90;;;;;;5076556;28;20032;-62
2023/01/01 02:52:17;;;;;;;16.90;6.70;;;13.70;99.90;;;;;;5079635;28;20384;-66
2023/01/01 02:55:15;;;;;;;15.05;6.13;;;13.80;99.90;;;;;;5055971;28;20037;-63
2023/01/01 03:00:17;;;;;;;14.05;5.72;;;13.80;99.90;;;;;;5040227;28;20059;-63
2023/01/01 03:00:49;;;;;;;13.45;5.60;;;13.80;99.90;;;;;;5079646;28;20125;-64
2023/01/01 03:03:36;;;;;;;13.43;4.60;;;13.90;99.90;;;;;;5085093;28;20032;-60
2023/01/01 03:06:24;;;;;;;11.98;4.13;;;14.00;99.90;;;;;;5082251;28;20123;-60
2023/01/01 03:09:10;;;;;;;11.32;5.00;;;14.00;99.90;;;;;;5035397;28;20106;-62
2023/01/01 03:11:55;;;;;;;12.48;4.03;;;14.00;99.90;;;;;;5054804;28;20106;-63
2023/01/01 03:14:48;;;;;;;7.80;3.78;;;14.10;99.90;;;;;;5074581;28;20174;-64
2023/01/01 03:17:22;;;;;;;8.27;3.67;;;14.20;99.90;;;;;;5073389;28;20036;-63
2023/01/01 03:19:48;;;;;;;;;;;14.20;99.90;;;;;;5053152;28;20044;-63
2023/01/01 03:22:40;;;;;;;9.68;4.20;;;14.10;99.90;;;;;;5077978;28;20411;-63
2023/01/01 03:25:14;;;;;;;10.80;4.25;;;14.20;99.90;;;;;;5084455;28;20064;-63
2023/01/01 03:27:47;;;;;;;9.25;3.63;;;14.20;99.90;;;;;;5092939;28;20393;-63
2023/01/01 03:30:15;;;;;;;10.23;3.42;;;14.30;99.90;;;;;;5097221;28;20063;-63
2023/01/01 03:33:00;;;;;;;8.85;3.47;;;14.20;99.90;;;;;;5096527;28;20131;-63
2023/01/01 03:35:29;;;;;;;;;;;14.20;99.90;;;;;;5075912;28;20320;-63
2023/01/01 03:37:57;;;;;;;8.90;3.42;;;14.20;99.90;;;;;;5089109;28;19926;-63
2023/01/01 03:40:26;;;;;;;8.98;3.65;;;14.20;99.90;;;;;;5092472;28;20361;-62
2023/01/01 03:43:01;;;;;;;12.13;3.85;;;14.20;99.90;;;;;;5096352;28;20075;-63
2023/01/01 03:45:39;;;;;;;12.52;3.83;;;14.20;99.90;;;;;;5087601;28;20521;-62
2023/01/01 03:48:05;;;;;;;9.90;3.38;;;14.20;99.90;;;;;;5089320;28;20036;-63
2023/01/01 03:51:06;;;;;;;10.52;3.55;;;14.20;99.90;;;;;;5091045;28;20071;-63
2023/01/01 03:53:40;;;;;;;9.48;3.22;;;14.20;99.90;;;;;;5075356;28;20347;-62
2023/01/01 03:56:32;;;;;;;9.55;3.20;;;14.30;99.90;;;;;;5099555;28;20059;-63
2023/01/01 03:59:06;;;;;;;8.57;3.25;;;14.30;99.90;;;;;;5082097;28;20043;-63
2023/01/01 04:01:38;;;;;;;9.00;2.92;;;14.40;99.90;;;;;;5090974;28;20028;-63
2023/01/01 04:04:05;;;;;;;10.65;2.90;;;14.40;99.90;;;;;;5086165;28;20105;-62
2023/01/01 04:06:34;;;;;;;7.88;3.00;;;14.40;99.90;;;;;;5097963;28;20054;-62
2023/01/01 04:09:01;;;;;;;9.75;3.20;;;14.30;99.90;;;;;;5095554;28;20078;-63
2023/01/01 04:14:35;;;;;;;12.88;3.72;;;14.20;99.90;;;;;;5067140;28;20044;-64
2023/01/01 04:17:04;;;;;;;7.22;2.97;;;14.20;99.90;;;;;;5071458;28;20052;-64
2023/01/01 04:19:30;;;;;;;10.10;3.00;;;14.20;99.90;;;;;;5090586;28;20040;-64
2023/01/01 04:21:56;;;;;;;9.50;3.58;;;14.30;99.90;;;;;;5092605;28;20040;-63
2023/01/01 04:24:28;;;;;;;9.15;2.80;;;14.20;99.90;;;;;;5090973;28;20502;-64
2023/01/01 04:26:54;;;;;;;8.70;3.13;;;14.20;99.90;;;;;;5086242;28;20393;-63
2023/01/01 04:29:21;;;;;;;10.52;3.10;;;14.30;99.90;;;;;;5091292;28;20078;-63
2023/01/01 04:31:47;;;;;;;9.82;2.60;;;14.30;99.90;;;;;;5092939;28;20161;-64
2023/01/01 04:34:12;;;;;;;11.07;2.85;;;14.40;99.90;;;;;;5091713;28;20379;-63
2023/01/01 04:36:38;;;;;;;6.63;2.38;;;14.30;99.90;;;;;;5086197;28;20259;-63
2023/01/01 04:39:04;;;;;;;7.40;2.40;;;14.30;99.90;;;;;;5089311;28;20093;-64
2023/01/01 04:41:35;;;;;;;7.70;2.30;;;14.30;99.90;;;;;;5094418;28;20449;-62
2023/01/01 04:44:01;;;;;;;9.77;2.50;;;14.30;99.90;;;;;;5086105;28;20080;-63
2023/01/01 04:46:26;;;;;;;10.77;3.10;;;14.30;99.90;;;;;;5095615;28;20063;-64
2023/01/01 04:48:52;;;;;;;9.95;2.55;;;14.30;99.90;;;;;;5069126;28;20428;-63
2023/01/01 04:51:19;;;;;;;8.52;2.63;;;14.30;99.90;;;;;;5089547;28;20105;-63
2023/01/01 04:53:45;;;;;;;5.10;2.20;;;14.30;99.90;;;;;;5089733;28;20051;-63
2023/01/01 04:56:17;;;;;;;10.32;2.80;;;14.20;99.90;;;;;;5091970;28;20414;-64
2023/01/01 04:58:43;;;;;;;8.85;2.97;;;14.20;99.90;;;;;;5088664;28;20044;-63
2023/01/01 05:01:22;;;;;;;8.13;2.40;;;14.20;99.90;;;;;;5096739;28;20115;-63
2023/01/01 05:03:48;;;;;;;5.68;2.35;;;14.10;99.90;;;;;;5094828;28;20044;-63
2023/01/01 05:06:15;;;;;;;11.13;2.70;;;14.00;99.90;;;;;;5083594;28;20479;-63
2023/01/01 05:08:44;;;;;;;6.75;2.92;;;14.00;99.90;;;;;;5059650;28;20416;-63
2023/01/01 05:11:15;;;;;;;8.43;2.33;;;14.00;99.90;;;;;;5071674;28;20036;-63
2023/01/01 05:13:43;;;;;;;10.02;2.58;;;14.00;99.90;;;;;;5063698;28;20439;-63
2023/01/01 05:16:12;;;;;;;6.00;2.45;;;14.00;99.90;;;;;;5070344;28;20327;-63
2023/01/01 05:18:38;;;;;;;4.00;1.80;;;14.00;99.90;;;;;;5071966;28;20524;-63
2023/01/01 05:21:11;;;;;;;5.78;2.10;;;13.90;99.90;;;;;;5081433;28;20398;-64
2023/01/01 05:23:37;;;;;;;6.38;1.92;;;13.90;99.90;;;;;;5083618;28;20142;-63
2023/01/01 05:26:17;;;;;;;7.13;2.38;;;13.80;99.90;;;;;;5089849;28;20451;-64
2023/01/01 05:28:43;;;;;;;5.63;1.88;;;13.80;99.90;;;;;;5087430;28;20505;-64
2023/01/01 05:31:12;;;;;;;6.97;2.17;;;13.80;99.90;;;;;;5094261;28;20485;-63
2023/01/01 05:33:41;;;;;;;4.82;1.70;;;13.70;99.90;;;;;;5091457;28;20122;-63
2023/01/01 05:36:09;;;;;;;4.68;1.73;;;13.60;99.90;;;;;;5069917;28;20474;-63
2023/01/01 05:38:35;;;;;;;6.80;2.45;;;13.60;99.90;;;;;;5086180;28;20039;-64
2023/01/01 05:41:06;;;;;;;4.60;1.63;;;13.50;99.90;;;;;;5076131;28;20032;-64
2023/01/01 05:43:32;;;;;;;9.52;2.03;;;13.50;99.90;;;;;;5086090;28;20349;-64
2023/01/01 05:46:24;;;;;;;4.90;1.77;;;13.50;99.90;;;;;;5093070;28;20114;-63
2023/01/01 05:48:51;;;;;;;6.05;2.00;;;13.40;99.90;;;;;;5089117;28;20110;-64
2023/01/01 05:51:20;;;;;;;6.68;1.88;;;13.50;99.90;;;;;;5068120;28;20364;-64
2023/01/01 05:53:46;;;;;;;8.10;1.70;;;13.50;99.90;;;;;;5093614;28;20083;-64
2023/01/01 05:56:13;;;;;;;7.70;2.70;;;13.40;99.90;;;;;;5095980;28;20363;-64
2023/01/01 05:58:39;;;;;;;6.88;2.17;;;13.40;99.90;;;;;;5087938;28;20039;-64
2023/01/01 06:01:16;;;;;;;5.95;1.83;;;13.30;99.90;;;;;;5092539;28;20032;-64
2023/01/01 06:03:42;;;;;;;8.20;1.80;;;13.20;99.90;;;;;;5084374;28;20149;-64
2023/01/01 06:06:10;;;;;;;8.20;1.80;;;13.30;99.90;;;;;;5099787;28;20485;-64
2023/01/01 06:08:36;;;;;;;6.55;1.80;;;13.20;99.90;;;;;;5088905;28;20051;-64
2023/01/01 06:11:04;;;;;;;6.28;1.80;;;13.20;99.90;;;;;;5091509;28;20039;-63
2023/01/01 06:13:30;;;;;;;9.25;2.10;;;13.20;99.90;;;;;;5085011;28;20622;-64
2023/01/01 06:15:57;;;;;;;8.48;2.00;;;13.20;99.90;;;;;;5098431;28;20074;-64
2023/01/01 06:18:23;;;;;;;8.45;2.28;;;13.10;99.90;;;;;;5072786;28;20050;-64
2023/01/01 06:20:49;;;;;;;6.82;2.22;;;13.10;99.90;;;;;;5084794;28;20059;-63
2023/01/01 06:23:22;;;;;;;5.97;2.20;;;13.10;99.90;;;;;;5084875;28;20086;-64
2023/01/01 06:25:47;;;;;;;7.43;2.50;;;13.10;99.90;;;;;;5076558;28;20039;-64
2023/01/01 06:28:13;;;;;;;11.65;2.58;;;13.10;99.90;;;;;;5084462;28;20051;-63
2023/01/01 06:30:38;;;;;;;8.48;2.45;;;13.00;99.90;;;;;;5098330;28;20097;-63
2023/01/01 06:33:04;;;;;;;7.00;2.33;;;13.00;99.90;;;;;;5089176;28;20150;-63
2023/01/01 06:35:30;;;;;;;9.25;2.60;;;13.00;99.90;;;;;;5088836;28;20104;-64
2023/01/01 06:37:59;;;;;;;10.18;2.53;;;13.00;99.90;;;;;;5092762;28;20032;-63
2023/01/01 06:40:24;;;;;;;7.63;2.30;;;13.00;99.90;;;;;;5077922;28;20044;-64
2023/01/01 06:42:50;;;;;;;9.02;2.95;;;12.90;99.90;;;;;;5085701;28;20024;-64
2023/01/01 06:45:15;;;;;;;11.27;2.40;;;12.90;99.90;;;;;;5082335;28;20513;-64
2023/01/01 06:47:41;;;;;;;7.82;2.45;;;13.00;99.90;;;;;;5076585;28;20401;-63
2023/01/01 06:50:07;;;;;;;8.35;2.15;;;13.00;99.90;;;;;;5089323;28;20040;-64
2023/01/01 06:52:35;;;;;;;9.23;2.05;;;12.90;99.90;;;;;;5091197;28;20028;-63
2023/01/01 06:55:02;;;;;;;6.97;2.17;;;12.80;99.90;;;;;;5075337;28;20039;-63
2023/01/01 06:57:33;;;;;;;12.65;3.10;;;12.80;99.90;;;;;;5085469;28;20028;-63
2023/01/01 06:59:59;;;;;;;9.18;2.35;;;12.80;99.90;;;;;;5085404;28;20036;-63
2023/01/01 07:02:25;;;;;;;10.80;2.30;;;12.80;99.90;;;;;;5075480;28;20066;-63
2023/01/01 07:04:51;;;;;;;8.52;2.28;;;12.70;99.90;;;;;;5097611;28;20526;-63
2023/01/01 07:07:16;;;;;;;8.13;2.42;;;12.80;99.90;;;;;;5088352;28;20044;-63
2023/01/01 07:09:42;;;;;;;8.85;2.20;;;12.80;99.90;;;;;;5089903;28;20051;-63
2023/01/01 07:12:07;;;;;;;10.98;2.38;;;12.80;99.90;;;;;;5086639;28;20044;-64
2023/01/01 07:14:33;;;;;;;8.38;2.38;;;12.80;99.90;;;;;;5082734;28;20062;-65
2023/01/01 07:16:59;;;;;;;8.07;2.15;;;12.70;99.90;;;;;;5090271;28;20036;-64
2023/01/01 07:19:24;;;;;;;10.52;2.28;;;12.70;99.90;;;;;;5094221;28;20106;-64
2023/01/01 07:21:54;;;;;;;7.95;1.92;;;12.70;99.90;;;;;;5088403;28;20129;-64
2023/01/01 07:27:32;;;;;;;8.57;2.15;;;12.80;99.90;;;;;;5074540;28;20048;-63
2023/01/01 07:30:05;;;;;;;7.47;1.90;;;12.70;99.90;;;;;;5076346;28;20171;-65
2023/01/01 07:32:31;;;;;;;8.48;2.42;;;12.70;99.90;;;;;;5060024;28;20033;-64
2023/01/01 07:34:56;;;;;;;9.25;2.08;;;12.60;99.90;;;;;;5077958;28;20479;-64
2023/01/01 07:37:25;;;;;;;10.68;2.38;;;12.60;99.90;;;;;;5077932;28;20463;-64
2023/01/01 07:39:51;;;;;;;9.77;2.47;;;12.60;99.90;;;;;;5078274;28;20364;-64
2023/01/01 07:42:16;;;;;;;9.68;2.20;;;12.50;99.90;;;;;;5075220;28;20031;-64
2023/01/01 07:44:42;;;;;;;9.52;2.60;;;12.60;99.90;;;;;;5079106;28;20056;-64
2023/01/01 07:47:22;;;;;;;9.55;2.33;;;12.60;99.90;;;;;;5077105;28;20052;-64
2023/01/01 07:49:48;;;;;;;10.40;2.47;;;12.50;99.90;;;;;;5055980;28;20064;-64
2023/01/01 07:52:14;;;;;;;8.63;2.13;;;12.50;99.90;;;;;;5071161;28;20049;-64
2023/01/01 07:54:46;;;;;;;10.23;2.42;;;12.40;99.90;;;;;;5059907;28;20044;-64
2023/01/01 07:57:11;;;;;;;8.25;2.33;;;12.40;99.90;;;;;;5076507;28;20050;-63
2023/01/01 07:59:37;;;;;;;10.13;2.75;;;12.40;99.90;;;;;;5058524;28;20028;-63
2023/01/01 08:02:03;;;;;;;9.55;2.45;;;12.30;99.90;;;;;;5058243;28;20314;-64
2023/01/01 08:04:28;;;;;;;9.25;2.08;;;12.30;99.90;;;;;;5072821;28;20055;-64
2023/01/01 08:06:54;;;;;;;11.57;2.65;;;12.30;99.90;;;;;;5079339;28;20127;-64
2023/01/01 08:09:20;;;;;;;7.88;2.50;;;12.30;99.90;;;;;;5075899;28;20119;-64
2023/01/01 08:11:45;;;;;;;10.05;2.58;;;12.30;99.90;;;;;;5074873;28;20040;-64
2023/01/01 08:14:12;;;;;;;10.07;2.88;;;12.30;99.90;;;;;;5079843;28;20079;-64
2023/01/01 08:16:44;;;;;;;10.82;2.25;;;12.30;99.90;;;;;;5076682;28;20143;-63
2023/01/01 08:19:09;;;;;;;7.93;2.08;;;12.30;99.90;;;;;;5062337;28;20501;-63
2023/01/01 08:21:35;;;;;;;12.15;2.78;;;12.20;99.90;;;;;;5081301;28;20146;-64
2023/01/01 08:24:02;;;;;;;15.00;3.00;;;12.20;99.90;;;;;;5084109;28;20091;-64
2023/01/01 08:26:32;;;;;;;9.18;2.45;;;12.20;99.90;;;;;;5092946;28;20523;-64
2023/01/01 08:28:58;;;;;;;10.45;2.47;;;12.20;99.90;;;;;;5087371;28;20463;-64
2023/01/01 08:31:24;;;;;;;10.48;2.33;;;12.20;99.90;;;;;;5092205;28;20041;-64
2023/01/01 08:33:50;;;;;;;8.05;2.45;;;12.20;99.90;;;;;;5072346;28;20047;-64
2023/01/01 08:36:15;;;;;;;9.10;2.35;;;12.10;99.90;;;;;;5087748;28;20491;-64
2023/01/01 08:38:42;;;;;;;12.05;2.28;;;12.10;99.90;;;;;;5075659;28;20480;-64
2023/01/01 08:41:08;;;;;;;9.27;2.38;;;12.10;99.90;;;;;;5072252;28;21248;-65
2023/01/01 08:43:34;;;;;;;8.18;2.20;;;12.10;99.90;;;;;;5087319;28;20452;-64
2023/01/01 08:45:59;;;;;;;9.93;2.63;;;12.10;99.90;;;;;;5096241;28;20338;-64
2023/01/01 08:48:25;;;;;;;9.63;2.63;;;12.10;99.90;;;;;;5080775;28;20036;-65
2023/01/01 08:51:01;;;;;;;10.85;2.75;;;12.10;99.90;;;;;;5072739;28;20495;-64
2023/01/01 08:53:29;;;;;;;8.75;2.40;;;12.00;99.90;;;;;;5092402;28;20344;-64
2023/01/01 08:55:56;;;;;;;13.10;2.70;;;12.00;99.90;;;;;;5091755;28;20044;-64
2023/01/01 08:58:22;;;;;;;10.27;3.40;;;12.00;99.90;;;;;;5091461;28;20059;-64
2023/01/01 09:00:47;;;;;;;9.63;2.55;;;12.00;99.90;;;;;;5091685;28;20039;-64
2023/01/01 09:03:13;;;;;;;13.57;3.58;;;12.00;99.90;;;;;;5082143;28;20122;-64
2023/01/01 09:05:44;;;;;;;11.00;2.70;;;12.10;99.90;;;;;;5074757;28;20036;-64
2023/01/01 09:08:13;;;;;;;10.77;2.85;;;12.10;99.90;;;;;;5092554;28;20078;-63
2023/01/01 09:10:38;;;;;;;10.52;3.55;;;12.00;99.90;;;;;;5072624;28;20039;-64
2023/01/01 09:13:04;;;;;;;13.20;3.38;;;12.00;99.90;;;;;;5072392;28;20043;-64
2023/01/01 09:15:30;;;;;;;10.30;2.88;;;12.00;99.90;;;;;;5070261;28;20067;-64
2023/01/01 09:18:04;;;;;;;10.20;2.72;;;12.00;99.90;;;;;;5090920;28;20364;-64
2023/01/01 09:20:30;;;;;;;11.38;2.72;;;12.00;99.90;;;;;;5072902;28;20050;-64
2023/01/01 09:22:56;;;;;;;10.65;3.03;;;12.00;99.90;;;;;;5091215;28;20039;-64
2023/01/01 09:25:24;;;;;;;9.85;2.72;;;12.00;99.90;;;;;;5090618;28;20048;-63
2023/01/01 09:28:01;;;;;;;11.07;2.78;;;12.00;99.90;;;;;;5069926;28;20534;-64
2023/01/01 09:30:27;;;;;;;8.70;2.25;;;12.10;99.90;;;;;;5073123;28;20502;-64
2023/01/01 09:32:52;;;;;;;10.35;2.75;;;12.00;99.90;;;;;;5091015;28;20032;-64
2023/01/01 09:35:18;;;;;;;12.45;2.63;;;12.00;99.90;;;;;;5093871;28;20105;-64
2023/01/01 09:37:44;;;;;;;15.10;2.53;;;12.10;99.90;;;;;;5092416;28;20470;-64
2023/01/01 09:40:43;;;;;;;10.48;2.40;;;12.10;99.90;;;;;;5095054;28;20402;-64
2023/01/01 09:43:26;;;;;;;9.55;2.47;;;12.10;99.90;;;;;;5100368;28;20130;-64
2023/01/01 09:46:02;;;;;;;9.85;2.33;;;12.10;99.90;;;;;;5088673;28;20039;-64
2023/01/01 09:48:30;;;;;;;12.35;2.58;;;12.10;99.90;;;;;;5072722;28;20039;-64
2023/01/01 09:50:56;;;;;;;12.48;2.80;;;12.10;99.90;;;;;;5089065;28;20040;-63
2023/01/01 09:53:47;;;;;;;8.32;2.45;;;12.10;99.90;;;;;;5089542;28;20048;-64
2023/01/01 09:56:34;;;;;;;11.30;2.47;;;12.10;99.90;;;;;;5091039;28;20032;-65
2023/01/01 09:59:00;;;;;;;12.55;2.72;;;12.10;99.90;;;;;;5073558;28;20665;-64
2023/01/01 10:01:26;;;;;;;10.60;2.83;;;12.10;99.90;;;;;;5071853;28;20055;-64
2023/01/01 10:04:16;;;;;;;11.15;2.42;;;12.20;99.90;;;;;;5071975;28;20036;-64
2023/01/01 10:07:02;;;;;;;9.95;2.58;;;12.10;99.90;;;;;;5068449;28;20051;-64
2023/01/01 10:10:01;;;;;;;10.45;2.53;;;12.20;99.90;;;;;;5089735;28;20118;-64
2023/01/01 10:12:58;;;;;;;12.95;2.38;;;12.20;99.90;;;;;;5072018;28;20122;-64
2023/01/01 10:15:30;;;;;;;10.25;2.53;;;12.20;99.90;;;;;;5082376;28;20457;-63
2023/01/01 10:18:02;;;;;;;9.65;2.53;;;12.10;99.90;;;;;;5084988;28;20055;-64
2023/01/01 10:20:40;;;;;;;10.63;2.55;;;12.10;99.90;;;;;;5077729;28;20123;-64
2023/01/01 10:23:29;;;;;;;14.75;3.22;;;12.20;99.90;;;;;;5066637;28;20040;-64
2023/01/01 10:26:07;;;;;;;10.10;2.42;;;12.20;99.90;;;;;;5042814;28;20045;-63
2023/01/01 10:28:44;;;;;;;8.75;2.72;;;12.20;99.90;;;;;;5046681;28;20547;-64
2023/01/01 10:31:14;;;;;;;8.70;2.55;;;12.30;99.90;;;;;;5049894;28;20428;-64
2023/01/01 10:33:40;;;;;;;9.52;2.47;;;12.30;99.90;;;;;;5051521;28;20044;-64
2023/01/01 10:36:11;;;;;;;10.60;2.70;;;12.40;99.90;;;;;;5074948;28;20037;-63
2023/01/01 10:38:37;;;;;;;9.15;2.20;;;12.50;99.90;;;;;;5048629;28;20039;-64
2023/01/01 10:41:08;;;;;;;11.65;3.20;;;12.50;99.90;;;;;;5049305;28;20045;-64
2023/01/01 10:43:33;;;;;;;12.60;3.17;;;12.50;99.90;;;;;;5062434;28;20465;-64
2023/01/01 10:46:01;;;;;;;12.90;2.60;;;12.50;99.90;;;;;;5051942;28;20037;-64
2023/01/01 10:48:32;;;;;;;9.75;2.88;;;12.50;99.90;;;;;;5064349;28;20034;-64
2023/01/01 10:51:00;;;;;;;10.45;2.85;;;12.50;99.90;;;;;;5047326;28;20083;-63
2023/01/01 10:53:36;;;;;;;9.98;2.70;;;12.60;99.90;;;;;;5071174;28;20037;-64
2023/01/01 10:56:15;;;;;;;11.15;2.97;;;12.60;99.90;;;;;;5045822;28;20040;-64
2023/01/01 10:58:55;;;;;;;11.05;2.47;;;12.60;99.90;;;;;;5053321;28;20372;-64
2023/01/01 11:01:24;;;;;;;9.38;2.50;;;12.70;99.90;;;;;;5046185;28;20036;-64
2023/01/01 11:04:19;;;;;;;8.95;2.47;;;12.70;99.90;;;;;;5050617;28;20127;-64
2023/01/01 11:06:46;;;;;;;12.18;3.20;;;12.70;99.90;;;;;;5048860;28;20033;-66
2023/01/01 11:09:27;;;;;;;12.43;2.92;;;12.80;99.90;;;;;;5045671;28;20036;-64
2023/01/01 11:11:59;;;;;;;11.27;3.25;;;12.80;99.90;;;;;;5053989;28;20036;-65
2023/01/01 11:14:39;;;;;;;11.73;3.10;;;12.90;99.90;;;;;;5045057;28;20041;-64
2023/01/01 11:17:05;;;;;;;11.48;3.17;;;12.90;99.90;;;;;;5048662;28;20094;-64
2023/01/01 11:19:40;;;;;;;9.00;2.53;;;13.00;99.90;;;;;;5071390;28;20036;-65
2023/01/01 11:22:06;;;;;;;13.88;3.08;;;13.00;99.90;;;;;;5048272;28;20045;-65
2023/01/01 11:24:34;;;;;;;12.20;2.60;;;13.10;99.90;;;;;;5073949;28;20511;-65
2023/01/01 11:27:25;;;;;;;12.90;3.03;;;13.10;99.90;;;;;;5061780;28;20127;-65
2023/01/01 11:29:53;;;;;;;12.00;3.00;;;13.00;99.90;;;;;;5058056;28;20096;-65
2023/01/01 11:32:22;;;;;;;12.00;3.25;;;13.00;99.90;;;;;;5045689;28;20174;-65
2023/01/01 11:34:56;;;;;;;9.98;2.90;;;13.10;99.90;;;;;;5081123;28;20048;-65
2023/01/01 11:37:27;;;;;;;;;;;13.20;99.90;;;;;;5081581;28;20040;-65
2023/01/01 11:39:56;;;;;;;10.52;2.97;;;13.10;99.90;;;;;;5064405;28;19920;-65
2023/01/01 11:42:24;;;;;;;12.93;3.10;;;13.00;99.90;;;;;;5076659;28;20231;-65
2023/01/01 11:44:57;;;;;;;12.82;3.45;;;13.00;99.90;;;;;;5047527;28;20454;-65
2023/01/01 11:47:40;;;;;;;9.25;2.92;;;13.00;99.90;;;;;;5061258;28;20040;-64
2023/01/01 11:50:21;;;;;;;13.40;3.25;;;13.00;99.90;;;;;;5063308;28;20048;-65
2023/01/01 11:52:49;;;;;;;10.15;2.78;;;13.00;99.90;;;;;;5063458;28;20037;-64
2023/01/01 11:55:36;;;;;;;11.23;2.95;;;13.00;99.90;;;;;;5062982;28;20094;-65
2023/01/01 11:58:05;;;;;;;9.10;2.90;;;13.00;99.90;;;;;;5081382;28;20079;-64
2023/01/01 12:00:34;;;;;;;10.10;2.70;;;13.00;99.90;;;;;;5065282;28;20081;-65
2023/01/01 12:03:20;;;;;;;11.20;2.97;;;13.10;99.90;;;;;;5063974;28;20094;-65
2023/01/01 12:05:55;;;;;;;12.23;2.90;;;13.10;99.90;;;;;;5064194;28;20070;-65
2023/01/01 12:08:25;;;;;;;;;;;13.00;99.90;;;;;;5063769;28;20063;-64
2023/01/01 12:10:57;;;;;;;10.98;3.15;;;12.90;99.90;;;;;;5065406;28;19970;-65
2023/01/01 12:13:32;;;;;;;9.40;2.50;;;12.80;99.90;;;;;;5060814;28;20045;-64
2023/01/01 12:16:19;;;;;;;10.02;2.50;;;12.80;99.90;;;;;;5061736;28;20106;-65
2023/01/01 12:18:51;;;;;;;13.30;2.67;;;12.80;99.90;;;;;;5057599;28;20150;-65
2023/01/01 12:21:24;;;;;;;9.63;2.88;;;12.90;99.90;;;;;;5058259;28;20123;-64
2023/01/01 12:23:56;;;;;;;11.50;2.95;;;12.90;99.90;;;;;;5063098;28;20456;-63
2023/01/01 12:26:25;;;;;;;13.82;3.00;;;12.80;99.90;;;;;;5092416;28;20036;-64
2023/01/01 12:29:14;;;;;;;11.82;3.72;;;12.90;99.90;;;;;;5093746;28;20032;-63
2023/01/01 12:31:57;;;;;;;10.45;2.42;;;12.90;99.90;;;;;;5091681;28;20041;-64
2023/01/01 12:34:32;;;;;;;8.15;2.53;;;12.90;99.90;;;;;;5087309;28;20325;-64
2023/01/01 12:37:25;;;;;;;10.10;2.55;;;12.80;99.90;;;;;;5087425;28;20106;-65
2023/01/01 12:40:20;;;;;;;11.90;2.85;;;12.90;99.90;;;;;;5076453;28;20028;-65
2023/01/01 12:43:41;;;;;;;11.32;2.80;;;12.90;99.90;;;;;;5088441;28;20032;-65
2023/01/01 12:46:35;;;;;;;10.98;2.80;;;12.90;99.90;;;;;;4990385;28;20486;-63
2023/01/01 12:49:39;;;;;;;11.15;2.88;;;12.80;99.90;;;;;;5086974;28;20063;-63
2023/01/01 12:52:30;;;;;;;15.30;3.30;;;12.80;99.90;;;;;;5086927;28;20113;-66
2023/01/01 12:55:36;;;;;;;13.35;3.30;;;12.70;99.90;;;;;;5090721;28;20096;-63
2023/01/01 12:58:07;;;;;;;12.38;3.33;;;12.70;99.90;;;;;;5087403;28;20063;-63
2023/01/01 13:00:36;;;;;;;10.98;3.17;;;12.60;99.90;;;;;;5086226;28;20067;-63
2023/01/01 13:04:09;;;;;;;14.38;3.45;;;12.60;99.90;;;;;;5089195;28;20495;-63
2023/01/01 13:06:44;;;;;;;11.00;3.03;;;12.70;99.90;;;;;;5067042;28;20086;-64
2023/01/01 13:09:16;;;;;;;12.15;3.38;;;12.60;99.90;;;;;;5068675;28;20325;-64